createdAt,value
2018-11-02T00:02:11.907Z,15.37
2018-11-02T00:04:39.789Z,16.87
2018-11-02T00:07:07.842Z,12.37
2018-11-02T00:09:35.811Z,15.27
2018-11-02T00:12:03.863Z,14.73
2018-11-02T00:14:31.792Z,14.47
2018-11-02T00:16:59.723Z,14.40
2018-11-02T00:19:31.006Z,13.87
2018-11-02T00:21:59.453Z,14.13
2018-11-02T00:24:27.918Z,13.57
2018-11-02T00:26:56.058Z,16.30
2018-11-02T00:29:24.009Z,13.73
2018-11-02T00:31:51.949Z,15.67
2018-11-02T00:34:19.827Z,13.80
2018-11-02T00:36:47.708Z,15.43
2018-11-02T00:39:15.656Z,13.63
2018-11-02T00:41:43.571Z,13.70
2018-11-02T00:44:11.567Z,12.70
2018-11-02T00:46:39.694Z,16.53
2018-11-02T00:49:07.631Z,13.27
2018-11-02T00:51:36.711Z,11.57
2018-11-02T00:54:05.211Z,15.73
2018-11-02T00:56:33.303Z,14.27
2018-11-02T00:59:01.420Z,12.40
2018-11-02T01:01:29.454Z,11.63
2018-11-02T01:03:57.391Z,12.67
2018-11-02T01:06:25.347Z,12.23
2018-11-02T01:08:53.351Z,12.70
2018-11-02T01:11:21.282Z,14.60
2018-11-02T01:13:49.171Z,12.20
2018-11-02T01:16:17.079Z,15.50
2018-11-02T01:18:45.017Z,12.57
2018-11-02T01:21:12.889Z,15.43
2018-11-02T01:23:40.788Z,15.07
2018-11-02T01:26:08.716Z,15.13
2018-11-02T01:28:36.667Z,14.37
2018-11-02T01:31:04.667Z,15.20
2018-11-02T01:33:36.772Z,14.63
2018-11-02T01:36:05.300Z,14.23
2018-11-02T01:38:33.167Z,14.83
2018-11-02T01:41:01.050Z,12.77
2018-11-02T01:43:28.982Z,16.10
2018-11-02T01:45:56.894Z,15.53
2018-11-02T01:48:24.986Z,14.43
2018-11-02T01:50:53.342Z,11.93
2018-11-02T01:53:21.308Z,13.33
2018-11-02T01:55:49.231Z,10.90
2018-11-02T01:58:17.115Z,10.80
2018-11-02T02:00:44.999Z,12.13
2018-11-02T02:03:12.972Z,10.80
2018-11-02T02:05:40.839Z,11.70
2018-11-02T02:08:08.893Z,12.00
2018-11-02T02:10:36.779Z,10.93
2018-11-02T02:13:04.857Z,11.03
2018-11-02T02:15:32.720Z,10.07
2018-11-02T02:18:06.346Z,11.27
2018-11-02T02:20:34.251Z,10.73
2018-11-02T02:23:02.164Z,10.47
2018-11-02T02:25:30.103Z,9.97
2018-11-02T02:27:57.979Z,9.93
2018-11-02T02:30:26.779Z,9.53
2018-11-02T02:32:54.681Z,9.90
2018-11-02T02:35:22.556Z,11.13
2018-11-02T02:37:50.441Z,11.00
2018-11-02T02:40:18.335Z,9.93
2018-11-02T02:42:46.299Z,11.60
2018-11-02T02:45:14.184Z,9.50
2018-11-02T02:47:42.064Z,10.13
2018-11-02T02:50:11.446Z,8.33
2018-11-02T02:52:39.344Z,11.10
2018-11-02T02:55:07.560Z,12.37
2018-11-02T02:57:35.856Z,8.90
2018-11-02T03:00:04.071Z,11.10
2018-11-02T03:02:31.999Z,10.33
2018-11-02T03:05:00.007Z,9.87
2018-11-02T03:07:27.955Z,9.07
2018-11-02T03:09:55.891Z,10.23
2018-11-02T03:12:23.782Z,11.57
2018-11-02T03:14:51.659Z,12.83
2018-11-02T03:17:19.607Z,8.63
2018-11-02T03:19:47.475Z,9.77
2018-11-02T03:22:15.428Z,8.83
2018-11-02T03:24:43.255Z,10.40
2018-11-02T03:27:11.155Z,7.87
2018-11-02T03:29:39.117Z,9.30
2018-11-02T03:32:07.143Z,9.27
2018-11-02T03:34:35.062Z,7.93
2018-11-02T03:37:02.984Z,7.93
2018-11-02T03:39:30.894Z,7.97
2018-11-02T03:41:58.792Z,7.90
2018-11-02T03:44:26.664Z,8.17
2018-11-02T03:46:54.549Z,9.13
2018-11-02T03:49:22.563Z,8.33
2018-11-02T03:51:52.992Z,8.67
2018-11-02T03:54:20.966Z,9.07
2018-11-02T03:56:48.910Z,7.60
2018-11-02T03:59:16.723Z,9.77
2018-11-02T04:01:44.615Z,8.97
2018-11-02T04:04:12.590Z,9.00
2018-11-02T04:06:40.475Z,10.20
2018-11-02T04:09:08.864Z,9.93
2018-11-02T04:11:36.799Z,8.77
2018-11-02T04:14:04.936Z,13.03
2018-11-02T04:16:32.869Z,8.67
2018-11-02T04:19:00.810Z,11.40
2018-11-02T04:21:28.703Z,8.53
2018-11-02T04:23:56.620Z,12.33
2018-11-02T04:26:24.573Z,9.47
2018-11-02T04:28:52.559Z,11.20
2018-11-02T04:31:20.488Z,10.87
2018-11-02T04:33:48.416Z,10.97
2018-11-02T04:36:16.343Z,11.40
2018-11-02T04:38:44.335Z,11.90
2018-11-02T04:41:12.298Z,13.67
2018-11-02T04:43:40.242Z,12.83
2018-11-02T04:46:08.119Z,14.17
2018-11-02T04:48:37.246Z,11.03
2018-11-02T04:51:05.358Z,11.50
2018-11-02T04:53:33.383Z,13.53
2018-11-02T04:56:01.527Z,11.67
2018-11-02T04:58:29.439Z,15.77
2018-11-02T05:00:57.395Z,12.33
2018-11-02T05:03:25.300Z,12.57
2018-11-02T05:05:53.234Z,12.53
2018-11-02T05:08:21.174Z,14.30
2018-11-02T05:10:49.176Z,13.30
2018-11-02T05:13:17.055Z,12.90
2018-11-02T05:15:44.922Z,15.33
2018-11-02T05:18:12.851Z,15.80
2018-11-02T05:20:40.839Z,13.20
2018-11-02T05:23:08.711Z,14.67
2018-11-02T05:25:36.574Z,13.27
2018-11-02T05:28:04.880Z,16.87
2018-11-02T05:30:32.814Z,17.80
2018-11-02T05:33:00.786Z,15.37
2018-11-02T05:35:28.782Z,16.23
2018-11-02T05:37:57.616Z,16.17
2018-11-02T05:40:25.523Z,14.67
2018-11-02T05:42:53.515Z,16.20
2018-11-02T05:45:21.404Z,16.67
2018-11-02T05:47:50.549Z,15.43
2018-11-02T05:50:18.510Z,14.00
2018-11-02T05:52:46.400Z,16.47
2018-11-02T05:55:14.367Z,14.97
2018-11-02T05:57:42.331Z,14.77
2018-11-02T06:00:10.909Z,13.17
2018-11-02T06:02:38.916Z,16.03
2018-11-02T06:05:06.802Z,15.17
2018-11-02T06:07:34.729Z,13.83
2018-11-02T06:10:02.802Z,14.13
2018-11-02T06:12:30.744Z,15.90
2018-11-02T06:14:58.730Z,15.33
2018-11-02T06:17:26.604Z,14.37
2018-11-02T06:19:54.612Z,16.27
2018-11-02T06:22:22.553Z,13.70
2018-11-02T06:24:50.501Z,13.63
2018-11-02T06:27:18.500Z,12.00
2018-11-02T06:29:46.434Z,14.50
2018-11-02T06:32:14.311Z,12.37
2018-11-02T06:34:42.344Z,13.43
2018-11-02T06:37:10.780Z,13.47
2018-11-02T06:39:38.704Z,17.27
2018-11-02T06:42:07.743Z,16.00
2018-11-02T06:44:35.647Z,14.17
2018-11-02T06:47:03.540Z,13.57
2018-11-02T06:49:31.513Z,14.77
2018-11-02T06:51:59.472Z,12.70
2018-11-02T06:54:27.514Z,13.97
2018-11-02T06:56:55.475Z,12.07
2018-11-02T06:59:23.527Z,9.67
2018-11-02T07:01:51.363Z,12.60
2018-11-02T07:04:19.343Z,12.73
2018-11-02T07:06:47.307Z,10.10
2018-11-02T07:09:15.186Z,14.97
2018-11-02T07:11:43.155Z,10.00
2018-11-02T07:14:11.018Z,9.40
2018-11-02T07:16:38.966Z,15.00
2018-11-02T07:19:06.895Z,13.93
2018-11-02T07:21:34.851Z,13.67
2018-11-02T07:24:02.862Z,15.57
2018-11-02T07:26:30.776Z,11.87
2018-11-02T07:28:58.719Z,12.23
2018-11-02T07:31:26.696Z,12.20
2018-11-02T07:33:54.631Z,8.17
2018-11-02T07:36:22.614Z,9.23
2018-11-02T07:38:50.739Z,10.13
2018-11-02T07:41:18.678Z,8.87
2018-11-02T07:43:46.547Z,7.47
2018-11-02T07:46:14.415Z,9.33
2018-11-02T07:48:42.395Z,6.93
2018-11-02T07:51:10.481Z,8.83
2018-11-02T07:53:38.448Z,7.60
2018-11-02T07:56:06.303Z,8.17
2018-11-02T07:58:34.240Z,7.60
2018-11-02T08:01:02.236Z,8.37
2018-11-02T08:03:30.219Z,8.93
2018-11-02T08:05:58.187Z,8.57
2018-11-02T08:08:28.033Z,9.00
2018-11-02T08:10:56.057Z,12.10
2018-11-02T08:13:24.005Z,7.63
2018-11-02T08:15:51.904Z,8.87
2018-11-02T08:18:19.818Z,7.63
2018-11-02T08:20:47.826Z,6.73
2018-11-02T08:23:15.784Z,9.83
2018-11-02T08:25:43.754Z,8.70
2018-11-02T08:28:11.736Z,6.10
2018-11-02T08:30:39.598Z,6.60
2018-11-02T08:33:07.459Z,7.40
2018-11-02T08:35:35.328Z,5.97
2018-11-02T08:38:03.198Z,5.97
2018-11-02T08:40:31.058Z,6.03
2018-11-02T08:42:59.027Z,6.23
2018-11-02T08:45:26.908Z,5.27
2018-11-02T08:47:54.867Z,7.53
2018-11-02T08:50:22.842Z,5.20
2018-11-02T08:52:50.803Z,5.10
2018-11-02T08:55:18.774Z,7.17
2018-11-02T09:00:32.867Z,4.67
2018-11-02T09:03:00.798Z,7.67
2018-11-02T09:05:29.803Z,5.20
2018-11-02T09:07:57.672Z,9.03
2018-11-02T09:10:25.635Z,6.97
2018-11-02T09:12:53.579Z,8.17
2018-11-02T09:15:21.460Z,5.87
2018-11-02T09:17:49.368Z,9.17
2018-11-02T09:20:17.283Z,7.17
2018-11-02T09:22:45.311Z,5.53
2018-11-02T09:25:13.248Z,6.33
2018-11-02T09:27:41.117Z,5.30
2018-11-02T09:30:11.539Z,7.47
2018-11-02T09:32:39.419Z,5.67
2018-11-02T09:35:07.340Z,5.93
2018-11-02T09:37:35.246Z,5.40
2018-11-02T09:40:07.097Z,7.90
2018-11-02T09:42:35.384Z,5.43
2018-11-02T09:45:03.648Z,4.50
2018-11-02T09:47:31.596Z,7.57
2018-11-02T09:49:59.630Z,5.43
2018-11-02T09:52:27.551Z,6.80
2018-11-02T09:54:55.435Z,5.10
2018-11-02T09:57:23.364Z,4.27
2018-11-02T09:59:51.267Z,4.20
2018-11-02T10:02:19.207Z,4.93
2018-11-02T10:04:47.087Z,3.50
2018-11-02T10:07:14.975Z,3.70
2018-11-02T10:09:42.907Z,5.23
2018-11-02T10:12:11.939Z,4.70
2018-11-02T10:14:39.918Z,3.97
2018-11-02T10:17:08.293Z,4.60
2018-11-02T10:19:36.270Z,4.23
2018-11-02T10:22:04.346Z,3.33
2018-11-02T10:24:32.408Z,4.57
2018-11-02T10:27:00.392Z,3.90
2018-11-02T10:29:28.312Z,4.17
2018-11-02T10:31:56.299Z,6.07
2018-11-02T10:34:24.235Z,7.30
2018-11-02T10:36:52.130Z,4.80
2018-11-02T10:39:20.007Z,4.13
2018-11-02T10:41:50.623Z,5.47
2018-11-02T10:44:20.762Z,6.40
2018-11-02T10:46:48.679Z,5.13
2018-11-02T10:49:16.745Z,4.33
2018-11-02T10:51:51.934Z,5.03
2018-11-02T10:54:19.899Z,5.20
2018-11-02T10:56:47.892Z,4.77
2018-11-02T10:59:15.932Z,5.40
2018-11-02T11:01:50.041Z,6.10
2018-11-02T11:04:18.127Z,4.17
2018-11-02T11:06:46.360Z,6.23
2018-11-02T11:09:14.354Z,5.37
2018-11-02T11:11:43.365Z,3.53
2018-11-02T11:14:11.335Z,8.83
2018-11-02T11:16:39.304Z,5.53
2018-11-02T11:19:08.055Z,3.90
2018-11-02T11:21:36.241Z,3.50
2018-11-02T11:24:04.344Z,5.30
2018-11-02T11:26:32.311Z,3.97
2018-11-02T11:29:00.368Z,4.60
2018-11-02T11:31:28.228Z,6.50
2018-11-02T11:33:56.128Z,4.40
2018-11-02T11:36:24.499Z,6.13
2018-11-02T11:38:52.430Z,5.53
2018-11-02T11:41:20.343Z,4.63
2018-11-02T11:43:48.231Z,5.53
2018-11-02T11:46:16.154Z,4.93
2018-11-02T11:48:44.098Z,4.60
2018-11-02T11:51:11.920Z,3.77
2018-11-02T11:53:39.839Z,6.57
2018-11-02T11:56:07.775Z,5.57
2018-11-02T11:58:35.663Z,4.50
2018-11-02T12:01:03.599Z,4.87
2018-11-02T12:03:31.490Z,4.23
2018-11-02T12:05:59.366Z,4.90
2018-11-02T12:08:27.280Z,3.50
2018-11-02T12:10:55.159Z,4.33
2018-11-02T12:13:23.058Z,5.40
2018-11-02T12:15:50.946Z,4.53
2018-11-02T12:18:18.814Z,3.10
2018-11-02T12:20:48.204Z,4.67
2018-11-02T12:23:16.179Z,4.23
2018-11-02T12:25:44.056Z,5.87
2018-11-02T12:28:12.014Z,6.00
2018-11-02T12:30:39.888Z,2.73
2018-11-02T12:33:07.750Z,3.17
2018-11-02T12:35:35.640Z,3.13
2018-11-02T12:38:03.578Z,4.87
2018-11-02T12:40:31.500Z,3.63
2018-11-02T12:43:00.825Z,3.57
2018-11-02T12:45:28.803Z,4.00
2018-11-02T12:47:56.903Z,2.20
2018-11-02T12:50:26.235Z,2.53
2018-11-02T12:52:55.259Z,1.20
2018-11-02T12:55:23.396Z,2.87
2018-11-02T12:57:51.305Z,2.53
2018-11-02T13:00:22.263Z,4.87
2018-11-02T13:02:50.697Z,2.73
2018-11-02T13:05:18.602Z,2.47
2018-11-02T13:07:46.461Z,5.50
2018-11-02T13:10:15.523Z,3.60
2018-11-02T13:12:43.416Z,3.03
2018-11-02T13:15:12.621Z,3.20
2018-11-02T13:17:41.455Z,4.23
2018-11-02T13:20:09.831Z,2.63
2018-11-02T13:22:38.032Z,7.43
2018-11-02T13:25:06.298Z,2.77
2018-11-02T13:27:34.216Z,3.53
2018-11-02T13:30:02.172Z,3.37
2018-11-02T13:32:29.991Z,2.67
2018-11-02T13:34:57.924Z,3.60
2018-11-02T13:37:25.814Z,4.80
2018-11-02T13:39:53.711Z,3.70
2018-11-02T13:42:21.602Z,4.97
2018-11-02T13:44:49.523Z,3.93
2018-11-02T13:47:17.387Z,4.47
2018-11-02T13:49:45.270Z,4.80
2018-11-02T13:52:13.288Z,3.73
2018-11-02T13:54:41.180Z,5.23
2018-11-02T13:57:09.055Z,3.10
2018-11-02T13:59:37.146Z,4.03
2018-11-02T14:02:05.275Z,5.27
2018-11-02T14:04:33.153Z,2.97
2018-11-02T14:07:01.079Z,3.10
2018-11-02T14:09:28.995Z,4.03
2018-11-02T14:11:56.896Z,5.87
2018-11-02T14:14:26.657Z,3.93
2018-11-02T14:16:54.704Z,3.57
2018-11-02T14:19:22.607Z,6.07
2018-11-02T14:21:50.538Z,2.87
2018-11-02T14:24:18.419Z,4.43
2018-11-02T14:26:52.834Z,2.73
2018-11-02T14:29:20.805Z,3.03
2018-11-02T14:31:48.644Z,3.57
2018-11-02T14:34:16.568Z,6.47
2018-11-02T14:36:44.506Z,3.73
2018-11-02T14:39:13.822Z,2.90
2018-11-02T14:41:42.513Z,6.00
2018-11-02T14:44:10.533Z,6.20
2018-11-02T14:46:38.876Z,3.23
2018-11-02T14:49:06.724Z,1.90
2018-11-02T14:51:36.686Z,4.77
2018-11-02T14:54:04.699Z,2.87
2018-11-02T14:56:32.593Z,3.17
2018-11-02T14:59:00.513Z,2.80
2018-11-02T15:04:20.767Z,4.20
2018-11-02T15:06:48.663Z,4.03
2018-11-02T15:09:16.568Z,8.30
2018-11-02T15:11:44.488Z,6.20
2018-11-02T15:14:12.359Z,2.90
2018-11-02T15:16:40.270Z,4.37
2018-11-02T15:19:08.159Z,2.60
2018-11-02T15:21:36.113Z,1.83
2018-11-02T15:24:04.159Z,3.73
2018-11-02T15:26:32.120Z,4.50
2018-11-02T15:28:59.941Z,3.63
2018-11-02T15:31:27.906Z,6.17
2018-11-02T15:33:55.892Z,2.40
2018-11-02T15:36:23.781Z,3.83
2018-11-02T15:38:51.663Z,2.83
2018-11-02T15:41:19.537Z,8.83
2018-11-02T15:43:47.440Z,3.37
2018-11-02T15:46:15.311Z,3.90
2018-11-02T15:48:43.355Z,2.93
2018-11-02T15:51:13.114Z,3.67
2018-11-02T15:53:41.074Z,2.90
2018-11-02T15:56:08.940Z,4.20
2018-11-02T15:58:36.964Z,1.57
2018-11-02T16:01:04.943Z,3.13
2018-11-02T16:03:32.854Z,2.50
2018-11-02T16:06:00.751Z,3.47
2018-11-02T16:08:28.670Z,5.20
2018-11-02T16:10:56.546Z,2.87
2018-11-02T16:13:24.431Z,1.87
2018-11-02T16:15:52.288Z,2.50
2018-11-02T16:18:20.163Z,2.77
2018-11-02T16:20:48.056Z,3.20
2018-11-02T16:23:15.957Z,1.93
2018-11-02T16:25:43.847Z,1.73
2018-11-02T16:28:11.727Z,2.20
2018-11-02T16:30:39.659Z,5.63
2018-11-02T16:33:07.543Z,2.37
2018-11-02T16:35:35.463Z,3.47
2018-11-02T16:38:03.387Z,2.17
2018-11-02T16:40:31.310Z,2.77
2018-11-02T16:42:59.199Z,1.23
2018-11-02T16:45:27.125Z,2.37
2018-11-02T16:47:55.027Z,3.00
2018-11-02T16:50:22.917Z,3.20
2018-11-02T16:52:50.810Z,2.53
2018-11-02T16:55:18.740Z,2.73
2018-11-02T16:57:46.778Z,3.40
2018-11-02T17:00:16.806Z,2.50
2018-11-02T17:02:45.907Z,2.80
2018-11-02T17:05:13.847Z,3.40
2018-11-02T17:07:42.336Z,2.30
2018-11-02T17:10:11.483Z,7.37
2018-11-02T17:12:40.059Z,4.60
2018-11-02T17:15:08.193Z,3.07
2018-11-02T17:17:36.505Z,2.30
2018-11-02T17:20:06.056Z,3.33
2018-11-02T17:22:33.956Z,3.17
2018-11-02T17:25:01.854Z,2.07
2018-11-02T17:27:29.738Z,3.53
2018-11-02T17:29:57.650Z,5.13
2018-11-02T17:32:25.615Z,3.73
2018-11-02T17:34:53.506Z,4.93
2018-11-02T17:37:21.419Z,3.57
2018-11-02T17:42:35.702Z,4.60
2018-11-02T17:45:03.671Z,4.23
2018-11-02T17:47:31.708Z,5.60
2018-11-02T17:49:59.682Z,4.17
2018-11-02T17:52:27.568Z,3.50
2018-11-02T17:54:55.536Z,4.97
2018-11-02T17:57:23.512Z,3.33
2018-11-02T17:59:51.564Z,6.27
2018-11-02T18:02:19.557Z,4.60
2018-11-02T18:04:48.050Z,6.63
2018-11-02T18:07:15.998Z,4.00
2018-11-02T18:09:43.970Z,5.90
2018-11-02T18:12:11.915Z,4.07
2018-11-02T18:14:39.902Z,8.67
2018-11-02T18:17:07.744Z,7.33
2018-11-02T18:19:35.712Z,5.63
2018-11-02T18:22:03.776Z,4.23
2018-11-02T18:24:31.649Z,4.20
2018-11-02T18:27:00.571Z,5.93
2018-11-02T18:29:28.610Z,4.00
2018-11-02T18:31:56.618Z,6.47
2018-11-02T18:34:24.603Z,7.93
2018-11-02T18:36:52.455Z,8.83
2018-11-02T18:39:20.387Z,6.40
2018-11-02T18:41:48.314Z,8.53
2018-11-02T18:44:16.267Z,7.30
2018-11-02T18:46:44.345Z,8.03
2018-11-02T18:49:12.409Z,7.47
2018-11-02T18:51:44.983Z,6.37
2018-11-02T18:54:12.955Z,7.43
2018-11-02T18:56:40.923Z,9.57
2018-11-02T18:59:09.710Z,8.23
2018-11-02T19:01:37.659Z,6.90
2018-11-02T19:04:06.046Z,6.73
2018-11-02T19:06:34.023Z,6.87
2018-11-02T19:09:02.025Z,8.00
2018-11-02T19:11:30.084Z,8.00
2018-11-02T19:13:58.023Z,6.70
2018-11-02T19:16:25.994Z,6.13
2018-11-02T19:18:55.806Z,7.27
2018-11-02T19:21:23.790Z,6.97
2018-11-02T19:23:51.717Z,6.97
2018-11-02T19:26:19.692Z,8.00
2018-11-02T19:28:47.602Z,10.30
2018-11-02T19:31:15.572Z,6.27
2018-11-02T19:33:43.823Z,6.30
2018-11-02T19:36:11.699Z,7.20
2018-11-02T19:38:39.741Z,6.23
2018-11-02T19:41:07.707Z,5.10
2018-11-02T19:43:35.694Z,6.50
2018-11-02T19:46:03.796Z,6.30
2018-11-02T19:48:31.719Z,5.27
2018-11-02T19:50:59.691Z,6.43
2018-11-02T19:53:27.639Z,5.73
2018-11-02T19:55:55.729Z,3.83
2018-11-02T19:58:23.619Z,3.97
2018-11-02T20:00:51.640Z,6.60
2018-11-02T20:03:19.528Z,4.40
2018-11-02T20:05:48.841Z,5.47
2018-11-02T20:08:16.856Z,7.53
2018-11-02T20:10:44.772Z,7.23
2018-11-02T20:13:12.798Z,6.33
2018-11-02T20:15:40.868Z,8.53
2018-11-02T20:18:08.799Z,5.63
2018-11-02T20:20:36.752Z,4.50
2018-11-02T20:23:05.142Z,6.37
2018-11-02T20:25:33.038Z,6.77
2018-11-02T20:28:00.991Z,4.43
2018-11-02T20:30:29.039Z,4.23
2018-11-02T20:32:57.362Z,4.70
2018-11-02T20:35:25.346Z,9.60
2018-11-02T20:37:53.282Z,6.70
2018-11-02T20:40:21.156Z,5.83
2018-11-02T20:42:49.115Z,5.30
2018-11-02T20:45:17.311Z,5.07
2018-11-02T20:47:50.367Z,5.47
2018-11-02T20:50:18.423Z,5.20
2018-11-02T20:52:46.518Z,5.97
2018-11-02T20:55:14.983Z,4.13
2018-11-02T20:57:43.178Z,3.37
2018-11-02T21:00:12.983Z,4.70
2018-11-02T21:02:41.690Z,5.47
2018-11-02T21:05:11.153Z,4.27
2018-11-02T21:07:39.252Z,4.13
2018-11-02T21:10:07.826Z,8.53
2018-11-02T21:12:35.834Z,4.13
2018-11-02T21:15:04.370Z,3.70
2018-11-02T21:17:32.149Z,3.20
2018-11-02T21:20:00.215Z,4.37
2018-11-02T21:22:28.266Z,4.70
2018-11-02T21:24:56.159Z,4.70
2018-11-02T21:27:24.112Z,2.93
2018-11-02T21:29:52.207Z,4.00
2018-11-02T21:32:20.170Z,6.50
2018-11-02T21:34:48.231Z,4.50
2018-11-02T21:37:16.119Z,6.30
2018-11-02T21:39:44.079Z,7.07
2018-11-02T21:42:11.979Z,4.57
2018-11-02T21:44:39.912Z,4.10
2018-11-02T21:47:07.906Z,6.00
2018-11-02T21:49:35.847Z,2.33
2018-11-02T21:52:04.263Z,2.83
2018-11-02T21:54:32.196Z,2.60
2018-11-02T21:57:08.661Z,3.80
2018-11-02T21:59:36.543Z,2.90
2018-11-02T22:02:04.516Z,3.83
2018-11-02T22:04:32.454Z,2.10
2018-11-02T22:07:00.437Z,2.67
2018-11-02T22:09:28.423Z,4.00
2018-11-02T22:11:56.395Z,3.93
2018-11-02T22:14:24.351Z,6.93
2018-11-02T22:16:52.326Z,2.33
2018-11-02T22:19:20.343Z,3.20
2018-11-02T22:21:48.247Z,2.70
2018-11-02T22:24:16.166Z,4.27
2018-11-02T22:26:44.107Z,1.53
2018-11-02T22:29:12.054Z,1.77
2018-11-02T22:31:41.062Z,3.00
2018-11-02T22:34:09.023Z,1.43
2018-11-02T22:36:36.954Z,2.27
2018-11-02T22:39:06.490Z,2.53
2018-11-02T22:41:34.470Z,4.90
2018-11-02T22:44:02.488Z,3.37
2018-11-02T22:46:30.396Z,3.27
2018-11-02T22:48:58.283Z,3.43
2018-11-02T22:51:26.162Z,2.83
2018-11-02T22:53:54.099Z,5.20
2018-11-02T22:56:21.971Z,2.73
2018-11-02T22:58:49.851Z,3.83
2018-11-02T23:01:23.323Z,4.53
2018-11-02T23:03:51.198Z,3.17
2018-11-02T23:06:19.168Z,7.53
2018-11-02T23:08:47.154Z,4.50
2018-11-02T23:11:15.004Z,2.97
2018-11-02T23:13:42.987Z,6.60
2018-11-02T23:16:10.971Z,3.00
2018-11-02T23:18:38.966Z,3.57
2018-11-02T23:21:06.935Z,4.60
2018-11-02T23:23:34.850Z,4.10
2018-11-02T23:26:02.952Z,1.83
2018-11-02T23:28:30.867Z,4.73
2018-11-02T23:30:58.775Z,2.77
2018-11-02T23:33:26.728Z,2.97
2018-11-02T23:35:54.625Z,5.53
2018-11-02T23:38:22.579Z,2.83
2018-11-02T23:40:50.513Z,5.63
2018-11-02T23:43:18.422Z,3.67
2018-11-02T23:45:46.351Z,4.70
2018-11-02T23:48:18.415Z,3.93
2018-11-02T23:50:46.963Z,3.77
2018-11-02T23:53:16.737Z,5.10
2018-11-02T23:55:45.283Z,7.43
2018-11-02T23:58:13.305Z,5.13
